AAY5383 KFAT-KLAS
Flight info
| Callsign | AAY5383 |
|---|---|
| Flight time | N/A |
| Altitude | 35000 |
| Route | YOSE3 NTELL CABAB Q174 FLCHR COKTL4 |
| Aircraft | A319/M-SDE3FGHIRWY/LB1 |
Departure
| Time | 2026-04-20 03:21 |
|---|---|
| Airport | Fresno Yosemite International Airport (KFAT) |
Arrival
| Time | N/A |
|---|---|
| Airport | Harry Reid International Airport (KLAS) |
| Time | Latitude | Longitude | Altitude | Speed | Heading |
|---|---|---|---|---|---|
| 2026-04-20 03:08 | 36.77166 | -119.71942 | 334 ft | 0 kts | 119° |
| 2026-04-20 03:14 | 36.77174 | -119.71957 | 334 ft | 3 kts | 119° |
| 2026-04-20 03:14 | 36.77182 | -119.71977 | 334 ft | 3 kts | 119° |
| 2026-04-20 03:14 | 36.77191 | -119.71996 | 334 ft | 3 kts | 119° |
| 2026-04-20 03:15 | 36.77197 | -119.72009 | 333 ft | 0 kts | 119° |
| 2026-04-20 03:15 | 36.77201 | -119.71995 | 335 ft | 8 kts | 65° |
| 2026-04-20 03:16 | 36.77283 | -119.71914 | 336 ft | 23 kts | 36° |
| 2026-04-20 03:16 | 36.77331 | -119.71777 | 338 ft | 14 kts | 87° |
| 2026-04-20 03:16 | 36.77320 | -119.71742 | 335 ft | 5 kts | 134° |
| 2026-04-20 03:16 | 36.77285 | -119.71699 | 336 ft | 16 kts | 135° |
| 2026-04-20 03:17 | 36.77191 | -119.71532 | 332 ft | 32 kts | 124° |
| 2026-04-20 03:17 | 36.77061 | -119.71312 | 330 ft | 29 kts | 124° |
| 2026-04-20 03:17 | 36.76954 | -119.71127 | 333 ft | 23 kts | 127° |
| 2026-04-20 03:17 | 36.76875 | -119.70985 | 333 ft | 18 kts | 126° |
| 2026-04-20 03:18 | 36.76813 | -119.70878 | 333 ft | 12 kts | 126° |
| 2026-04-20 03:18 | 36.76773 | -119.70807 | 337 ft | 8 kts | 116° |
| 2026-04-20 03:18 | 36.76758 | -119.70738 | 337 ft | 10 kts | 94° |
| 2026-04-20 03:18 | 36.76757 | -119.70600 | 337 ft | 22 kts | 88° |
| 2026-04-20 03:19 | 36.76800 | -119.70449 | 336 ft | 15 kts | 39° |
| 2026-04-20 03:19 | 36.76881 | -119.70398 | 336 ft | 14 kts | 358° |
| 2026-04-20 03:19 | 36.76952 | -119.70467 | 340 ft | 3 kts | 305° |
| 2026-04-20 03:20 | 36.76973 | -119.70505 | 338 ft | 27 kts | 305° |
| 2026-04-20 03:20 | 36.77212 | -119.70931 | 330 ft | 92 kts | 306° |
| 2026-04-20 03:20 | 36.77706 | -119.71791 | 336 ft | 150 kts | 305° |
| 2026-04-20 03:20 | 36.78381 | -119.72982 | 749 ft | 172 kts | 303° |
| 2026-04-20 03:21 | 36.79085 | -119.74244 | 1346 ft | 189 kts | 313° |
| 2026-04-20 03:21 | 36.80322 | -119.74984 | 1754 ft | 212 kts | 353° |
| 2026-04-20 03:21 | 36.81750 | -119.74564 | 2493 ft | 218 kts | 31° |
| 2026-04-20 03:21 | 36.82712 | -119.73121 | 3217 ft | 222 kts | 68° |
| 2026-04-20 03:22 | 36.82814 | -119.71205 | 3936 ft | 227 kts | 104° |
| 2026-04-20 03:22 | 36.82156 | -119.69415 | 4676 ft | 227 kts | 120° |
| 2026-04-20 03:22 | 36.81342 | -119.67729 | 5420 ft | 227 kts | 122° |
| 2026-04-20 03:22 | 36.80486 | -119.66071 | 6130 ft | 228 kts | 123° |
| 2026-04-20 03:23 | 36.79605 | -119.64417 | 6810 ft | 229 kts | 124° |
| 2026-04-20 03:23 | 36.78712 | -119.62760 | 7461 ft | 231 kts | 124° |
| 2026-04-20 03:23 | 36.77813 | -119.61089 | 8091 ft | 233 kts | 124° |
| 2026-04-20 03:23 | 36.76953 | -119.59365 | 8701 ft | 235 kts | 120° |
| 2026-04-20 03:24 | 36.76190 | -119.57549 | 9286 ft | 237 kts | 116° |
| 2026-04-20 03:24 | 36.75586 | -119.55845 | 9806 ft | 239 kts | 112° |